Time;durP1;ratioP1;P1;durP2;ratioP2;P2;SDS_P1;SDS_P2;PMS_P1;PMS_P2;Temp;Humidity;BMP_temperature;BMP_pressure;BME280_temperature;BME280_humidity;BME280_pressure;Samples;Min_cycle;Max_cycle;Signal;HPM_P1;HPM_P2
2023/08/10 00:00:55;;;;;;;5.85;4.50;;;;;;;30.51;58.20;100914.78;5056087;28;69691;-40
2023/08/10 00:03:25;;;;;;;11.55;4.28;;;;;;;30.48;58.36;100901.66;5057291;28;65849;-40
2023/08/10 00:05:56;;;;;;;9.83;4.87;;;;;;;30.61;60.78;100925.94;5054089;28;69461;-39
2023/08/10 00:08:29;;;;;;;8.82;5.05;;;;;;;30.67;64.91;100925.09;5049597;28;65302;-38
2023/08/10 00:11:00;;;;;;;6.30;5.68;;;;;;;30.73;66.42;100928.81;5045874;28;70434;-40
2023/08/10 00:13:31;;;;;;;26.40;6.07;;;;;;;30.82;66.04;100932.94;5054265;28;65947;-39
2023/08/10 00:16:03;;;;;;;16.77;6.88;;;;;;;30.84;70.50;100946.22;5054979;28;71404;-39
2023/08/10 00:18:34;;;;;;;7.78;6.80;;;;;;;30.81;73.06;100943.97;5039940;28;65733;-38
2023/08/10 00:21:05;;;;;;;12.50;7.20;;;;;;;30.68;73.43;100915.09;5048863;28;69896;-36
2023/08/10 00:23:36;;;;;;;14.40;6.60;;;;;;;30.85;73.34;100945.22;5056285;28;65945;-38
2023/08/10 00:26:08;;;;;;;10.75;7.15;;;;;;;30.89;73.96;100946.41;5055823;28;70127;-41
2023/08/10 00:28:39;;;;;;;9.15;5.80;;;;;;;30.88;75.08;100955.59;5056299;28;65150;-37
2023/08/10 00:31:10;;;;;;;14.77;5.63;;;;;;;30.93;73.50;100950.34;5059186;28;69686;-39
2023/08/10 00:33:41;;;;;;;9.75;6.30;;;;;;;31.02;69.91;100951.75;5056900;28;65539;-38
2023/08/10 00:36:12;;;;;;;10.98;5.97;;;;;;;31.02;71.25;100959.88;5048907;28;70239;-38
2023/08/10 00:38:43;;;;;;;13.30;6.20;;;;;;;31.06;71.88;100957.53;5059144;28;66350;-38
2023/08/10 00:41:14;;;;;;;9.35;6.10;;;;;;;31.06;73.11;100960.25;5052726;28;70486;-38
2023/08/10 00:43:45;;;;;;;7.10;5.80;;;;;;;31.22;68.26;100958.88;5054590;28;66564;-39
2023/08/10 00:46:16;;;;;;;9.18;6.25;;;;;;;30.84;67.67;100892.06;5048611;28;68880;-40
2023/08/10 00:48:47;;;;;;;11.50;5.28;;;;;;;31.30;66.91;100966.75;5052389;28;67649;-40
2023/08/10 00:51:20;;;;;;;7.70;5.30;;;;;;;31.18;66.56;100942.25;5051860;28;43544;-42
2023/08/10 00:53:52;;;;;;;11.30;5.28;;;;;;;30.54;66.03;100833.13;5056247;28;65726;-42
2023/08/10 00:56:23;;;;;;;7.10;5.28;;;;;;;31.33;66.01;100966.31;5054468;28;70231;-40
2023/08/10 00:58:54;;;;;;;7.50;5.10;;;;;;;31.40;65.47;100977.97;5048633;28;66349;-43
2023/08/10 01:01:25;;;;;;;8.40;5.80;;;;;;;31.40;65.55;100972.53;5042799;28;70702;-40
2023/08/10 01:03:56;;;;;;;8.05;4.85;;;;;;;31.35;65.34;100959.59;5056669;28;66976;-41
2023/08/10 01:06:55;;;;;;;7.83;4.80;;;;;;;31.38;65.64;100986.31;5052302;28;69651;-41
2023/08/10 01:09:41;;;;;;;7.30;4.88;;;;;;;31.44;65.40;100979.16;5051428;28;65984;-41
2023/08/10 01:12:17;;;;;;;6.60;4.63;;;;;;;31.53;65.20;100975.09;5051346;28;70691;-41
2023/08/10 01:15:11;;;;;;;12.25;5.15;;;;;;;31.54;64.69;100979.50;5052427;28;66444;-40
2023/08/10 01:17:50;;;;;;;7.05;4.80;;;;;;;31.30;65.19;100943.19;5050370;28;70671;-41
2023/08/10 01:20:24;;;;;;;7.03;4.55;;;;;;;31.58;64.93;100979.88;5042519;28;65621;-41
2023/08/10 01:22:58;;;;;;;6.60;4.50;;;;;;;31.63;64.45;100984.63;5049079;28;69503;-41
2023/08/10 01:25:30;;;;;;;5.65;4.93;;;;;;;31.65;64.82;100985.22;5053535;28;66536;-39
2023/08/10 01:28:01;;;;;;;5.43;4.82;;;;;;;31.67;64.78;100977.69;5053271;28;70265;-41
2023/08/10 01:30:32;;;;;;;8.23;5.15;;;;;;;31.68;64.85;100979.34;5048727;28;65709;-39
2023/08/10 01:33:03;;;;;;;8.13;4.70;;;;;;;31.70;64.57;100985.38;5055591;28;70335;-39
2023/08/10 01:35:37;;;;;;;5.30;4.80;;;;;;;31.72;64.83;100986.00;5047905;28;65983;-42
2023/08/10 01:38:09;;;;;;;5.95;5.20;;;;;;;31.64;64.59;100975.44;5055617;28;70253;-40
2023/08/10 01:40:40;;;;;;;6.22;4.78;;;;;;;31.78;64.60;100985.09;5054024;28;66333;-42
2023/08/10 01:43:10;;;;;;;7.68;4.95;;;;;;;31.79;64.58;100982.19;5050621;28;69387;-40
2023/08/10 01:45:48;;;;;;;3.92;3.60;;;;;;;31.48;64.53;100918.03;5054814;28;65396;-42
2023/08/10 01:48:24;;;;;;;4.00;3.70;;;;;;;31.39;64.48;100909.34;5055784;28;68972;-40
2023/08/10 01:50:58;;;;;;;4.88;3.95;;;;;;;31.87;64.48;100989.16;5056622;28;66627;-39
2023/08/10 01:53:35;;;;;;;5.38;4.50;;;;;;;31.88;64.47;100993.56;5057905;28;70154;-41
2023/08/10 01:56:06;;;;;;;7.88;4.38;;;;;;;31.91;64.37;100982.28;5056491;28;66112;-41
2023/08/10 01:58:37;;;;;;;6.93;4.25;;;;;;;31.92;64.26;100970.38;5055264;28;69345;-41
2023/08/10 02:01:08;;;;;;;8.50;4.13;;;;;;;31.85;64.53;100958.75;5058067;28;67503;-41
2023/08/10 02:03:39;;;;;;;3.53;3.22;;;;;;;31.96;64.10;100977.03;5054629;28;70483;-41
2023/08/10 02:06:10;;;;;;;4.45;3.55;;;;;;;31.98;64.33;100974.91;5047769;28;66033;-42
2023/08/10 02:08:44;;;;;;;3.75;3.38;;;;;;;31.99;64.35;100965.72;5058651;28;70144;-40
2023/08/10 02:11:15;;;;;;;5.22;3.45;;;;;;;31.90;64.09;100953.47;5062235;28;65421;-40
2023/08/10 02:13:46;;;;;;;5.18;3.72;;;;;;;32.07;64.42;100966.44;5076443;28;70335;-42
2023/08/10 02:16:17;;;;;;;3.78;3.47;;;;;;;32.09;64.08;100967.06;5071567;28;66214;-41
2023/08/10 02:18:47;;;;;;;10.13;4.18;;;;;;;31.97;64.16;100951.53;5044045;28;70367;-41
2023/08/10 02:21:18;;;;;;;4.82;3.70;;;;;;;32.13;64.05;100976.44;5055285;28;66106;-40
2023/08/10 02:23:50;;;;;;;5.30;3.10;;;;;;;32.15;64.21;100966.16;5059952;28;70971;-41
2023/08/10 02:26:21;;;;;;;5.18;3.15;;;;;;;32.16;64.03;100970.53;5057868;28;65644;-41
2023/08/10 02:28:52;;;;;;;5.85;3.20;;;;;;;32.17;64.21;100961.34;5061444;28;71280;-42
2023/08/10 02:31:24;;;;;;;4.40;2.97;;;;;;;32.04;64.00;100941.44;5059278;28;66392;-40
2023/08/10 02:33:55;;;;;;;4.20;3.22;;;;;;;32.23;64.01;100968.56;5055828;28;70251;-43
2023/08/10 02:36:25;;;;;;;5.75;3.63;;;;;;;32.26;64.03;100965.38;5058561;28;65790;-40
2023/08/10 02:38:57;;;;;;;6.88;3.22;;;;;;;32.27;63.83;100965.16;5059050;28;69193;-42
2023/08/10 02:41:28;;;;;;;4.57;3.20;;;;;;;32.31;63.75;100962.81;5060409;28;66083;-42
2023/08/10 02:43:58;;;;;;;4.28;3.38;;;;;;;32.33;63.79;100971.56;5057839;28;70223;-40
2023/08/10 02:46:35;;;;;;;3.65;3.03;;;;;;;32.35;63.77;100958.59;5053681;28;66241;-41
2023/08/10 02:49:06;;;;;;;5.40;2.72;;;;;;;32.32;63.85;100950.94;5054661;28;70324;-42
2023/08/10 02:51:36;;;;;;;3.72;3.08;;;;;;;32.36;63.65;100949.41;5053075;28;65777;-40
2023/08/10 02:54:07;;;;;;;3.92;2.97;;;;;;;32.41;63.79;100957.69;5055593;28;68932;-42
2023/08/10 02:56:38;;;;;;;3.08;2.78;;;;;;;32.43;63.57;100952.88;5054032;28;65824;-40
2023/08/10 02:59:08;;;;;;;4.80;3.40;;;;;;;32.45;63.55;100952.63;5053654;28;70033;-42
2023/08/10 03:01:39;;;;;;;3.92;3.20;;;;;;;32.49;63.78;100953.88;5052516;28;66507;-41
2023/08/10 03:04:10;;;;;;;4.97;2.90;;;;;;;32.35;63.71;100915.19;5056327;28;71747;-40
2023/08/10 03:06:41;;;;;;;4.40;3.10;;;;;;;32.52;63.21;100930.84;5057584;28;66347;-41
2023/08/10 03:09:13;;;;;;;4.20;3.25;;;;;;;32.57;63.18;100936.41;5076354;28;70822;-40
2023/08/10 03:11:45;;;;;;;4.97;3.35;;;;;;;32.54;63.43;100920.56;5056662;28;66785;-39
2023/08/10 03:14:16;;;;;;;3.80;3.20;;;;;;;32.62;63.33;100928.41;5056948;28;69425;-42
2023/08/10 03:16:47;;;;;;;4.03;3.03;;;;;;;32.64;63.19;100929.00;5049958;28;65788;-41
2023/08/10 03:19:18;;;;;;;4.15;3.08;;;;;;;32.65;63.30;100931.50;5048009;28;70447;-40
2023/08/10 03:21:52;;;;;;;5.80;3.00;;;;;;;32.57;63.42;100906.53;5057385;28;66208;-41
2023/08/10 03:24:24;;;;;;;4.57;3.30;;;;;;;32.70;63.69;100917.19;5042363;28;69847;-41
2023/08/10 03:26:55;;;;;;;5.63;3.47;;;;;;;32.71;63.02;100918.88;5050484;28;66105;-41
2023/08/10 03:29:26;;;;;;;8.45;3.83;;;;;;;32.74;62.97;100923.03;5058353;28;70305;-41
2023/08/10 03:31:59;;;;;;;4.57;3.20;;;;;;;32.75;63.19;100914.63;5059140;28;66240;-41
2023/08/10 03:34:31;;;;;;;5.57;2.72;;;;;;;32.78;63.24;100922.31;5056678;28;70465;-41
2023/08/10 03:37:03;;;;;;;2.90;2.55;;;;;;;32.81;62.88;100921.84;5051406;28;65587;-41
2023/08/10 03:39:34;;;;;;;5.05;3.03;;;;;;;32.82;62.82;100915.34;5056532;28;69390;-41
2023/08/10 03:42:07;;;;;;;8.90;2.65;;;;;;;32.87;62.85;100898.34;5033703;28;66473;-42
2023/08/10 03:44:38;;;;;;;6.22;2.70;;;;;;;32.88;62.42;100881.81;5055343;28;70453;-43
2023/08/10 03:47:09;;;;;;;3.50;3.05;;;;;;;32.85;62.51;100890.44;5049088;28;66300;-41
2023/08/10 03:49:40;;;;;;;3.95;3.13;;;;;;;32.77;62.71;100873.66;5050717;28;70235;-41
2023/08/10 03:52:11;;;;;;;5.03;2.60;;;;;;;32.94;62.57;100890.91;5059044;28;65552;-40
2023/08/10 03:54:42;;;;;;;4.13;2.60;;;;;;;32.96;62.91;100885.25;5053760;28;69891;-40
2023/08/10 03:57:13;;;;;;;3.85;2.83;;;;;;;32.95;62.45;100876.25;5051335;28;66262;-41
2023/08/10 03:59:45;;;;;;;3.65;2.60;;;;;;;32.96;62.51;100872.50;5053774;28;70439;-41
2023/08/10 04:02:16;;;;;;;5.63;2.72;;;;;;;32.96;62.73;100871.66;5054704;28;66539;-41
2023/08/10 04:04:47;;;;;;;6.45;3.00;;;;;;;33.06;62.50;100877.38;5055806;28;69917;-42
2023/08/10 04:07:17;;;;;;;3.50;2.65;;;;;;;33.08;62.48;100858.94;5031002;28;66285;-41
2023/08/10 04:09:48;;;;;;;4.23;3.00;;;;;;;33.01;62.41;100847.34;5049935;28;70072;-41
2023/08/10 04:12:22;;;;;;;3.63;2.90;;;;;;;33.12;62.23;100860.94;5055217;28;66330;-41
2023/08/10 04:14:53;;;;;;;4.13;2.80;;;;;;;33.08;62.12;100848.06;5039208;28;69998;-41
2023/08/10 04:17:23;;;;;;;7.45;2.63;;;;;;;32.90;62.30;100819.94;5052477;28;66290;-40
2023/08/10 04:19:56;;;;;;;6.07;2.60;;;;;;;33.16;62.07;100855.88;5056706;28;70591;-41
2023/08/10 04:22:26;;;;;;;6.00;2.90;;;;;;;32.89;62.08;100801.94;5055744;28;65502;-42
2023/08/10 04:24:57;;;;;;;7.50;2.60;;;;;;;33.20;62.15;100839.91;5056222;28;70427;-43
2023/08/10 04:27:28;;;;;;;4.60;2.80;;;;;;;33.12;61.85;100819.34;5056199;28;65983;-42
2023/08/10 04:29:59;;;;;;;4.50;2.33;;;;;;;33.24;61.90;100831.06;5058492;28;70692;-42
2023/08/10 04:32:31;;;;;;;2.97;2.55;;;;;;;33.22;62.15;100822.31;5054193;28;66415;-41
2023/08/10 04:35:02;;;;;;;5.87;2.87;;;;;;;33.21;61.87;100808.94;5057661;28;69733;-42
2023/08/10 04:37:33;;;;;;;3.45;2.75;;;;;;;33.24;62.06;100812.03;5058777;28;65907;-40
2023/08/10 04:40:09;;;;;;;5.63;2.58;;;;;;;33.30;61.98;100813.78;5049286;28;69868;-41
2023/08/10 04:42:40;;;;;;;4.10;2.60;;;;;;;33.33;62.08;100826.09;5050920;28;66597;-41
2023/08/10 04:45:11;;;;;;;2.73;2.33;;;;;;;33.28;62.03;100810.47;5052973;28;70672;-42
2023/08/10 04:47:41;;;;;;;2.80;2.13;;;;;;;33.34;61.94;100809.50;5053968;28;66846;-44
2023/08/10 04:50:12;;;;;;;5.53;2.38;;;;;;;33.35;62.28;100810.38;5051011;28;70184;-41
2023/08/10 04:52:43;;;;;;;6.53;2.97;;;;;;;33.37;61.88;100797.34;5056555;28;66601;-40
2023/08/10 04:55:14;;;;;;;4.63;2.70;;;;;;;33.25;61.89;100774.78;5058432;28;70961;-42
2023/08/10 04:57:45;;;;;;;3.20;2.55;;;;;;;33.29;61.68;100773.22;5056856;28;65720;-40
2023/08/10 05:00:17;;;;;;;2.83;2.35;;;;;;;33.43;61.73;100787.38;5055445;28;70357;-40
2023/08/10 05:02:47;;;;;;;2.90;2.50;;;;;;;33.46;61.69;100789.63;5047647;28;65691;-41
2023/08/10 05:05:18;;;;;;;6.80;2.60;;;;;;;33.40;61.61;100779.72;5049179;28;69722;-42
2023/08/10 05:07:49;;;;;;;2.55;2.35;;;;;;;33.45;61.77;100788.81;5056685;28;66352;-40
2023/08/10 05:10:21;;;;;;;3.65;2.88;;;;;;;33.47;61.50;100773.09;5057687;28;70630;-41
2023/08/10 05:12:51;;;;;;;;;;;;;;;33.18;62.58;100772.19;5055518;28;66228;-41
2023/08/10 05:15:22;;;;;;;3.30;3.00;;;;;;;33.35;61.93;100751.38;5045432;28;70286;-41
2023/08/10 05:17:53;;;;;;;4.50;2.60;;;;;;;33.51;61.84;100765.25;5054355;28;66679;-42
2023/08/10 05:20:24;;;;;;;2.90;2.45;;;;;;;33.53;61.77;100763.16;5042047;28;69423;-40
2023/08/10 05:22:55;;;;;;;3.13;2.60;;;;;;;33.55;61.35;100761.03;5049079;28;65983;-41
2023/08/10 05:25:25;;;;;;;3.63;2.60;;;;;;;33.59;61.69;100754.03;5045440;28;69506;-41
2023/08/10 05:27:56;;;;;;;3.92;2.38;;;;;;;33.17;61.47;100683.56;5054334;28;66955;-42
2023/08/10 05:30:27;;;;;;;4.77;1.97;;;;;;;33.58;61.83;100744.25;5053034;28;70293;-42
2023/08/10 05:32:58;;;;;;;3.33;2.60;;;;;;;33.62;61.43;100745.38;5053075;28;66328;-42
2023/08/10 05:35:28;;;;;;;5.53;2.40;;;;;;;33.63;61.33;100741.63;5045414;28;70326;-40
2023/08/10 05:37:59;;;;;;;2.85;2.53;;;;;;;33.23;61.07;100670.91;5054146;28;65646;-41
2023/08/10 05:40:30;;;;;;;3.80;2.40;;;;;;;33.42;61.52;100696.03;5053898;28;69924;-41
2023/08/10 05:43:00;;;;;;;4.65;2.75;;;;;;;33.65;61.23;100723.13;5052332;28;67143;-41
2023/08/10 05:45:31;;;;;;;3.47;2.70;;;;;;;33.70;61.22;100720.53;5054984;28;70565;-41
2023/08/10 05:48:12;;;;;;;5.82;2.97;;;;;;;33.71;61.16;100707.75;5059777;28;66643;-39
2023/08/10 05:50:43;;;;;;;3.22;2.85;;;;;;;33.75;61.09;100700.75;5071286;28;70032;-40
2023/08/10 05:53:14;;;;;;;3.10;2.80;;;;;;;33.74;61.04;100690.94;5059009;28;67347;-41
2023/08/10 05:55:45;;;;;;;3.20;2.35;;;;;;;33.81;61.15;100695.16;5055559;28;70206;-41
2023/08/10 05:58:16;;;;;;;4.13;2.93;;;;;;;33.75;60.73;100690.69;5049674;28;65544;-40
2023/08/10 06:00:46;;;;;;;7.27;2.33;;;;;;;33.85;60.87;100689.22;5058831;28;70405;-41
2023/08/10 06:03:17;;;;;;;4.00;2.83;;;;;;;33.87;60.80;100684.38;5059836;28;67736;-42
2023/08/10 06:05:49;;;;;;;4.28;3.15;;;;;;;33.89;60.84;100687.66;5059766;28;70172;-41
2023/08/10 06:08:19;;;;;;;2.63;2.40;;;;;;;33.83;60.86;100669.63;5053709;28;66610;-43
2023/08/10 06:10:51;;;;;;;3.17;2.33;;;;;;;33.62;60.40;100636.59;5056939;28;69866;-40
2023/08/10 06:13:22;;;;;;;4.28;2.60;;;;;;;33.65;60.45;100625.22;5054358;28;66300;-41
2023/08/10 06:15:53;;;;;;;4.93;2.90;;;;;;;34.00;60.69;100681.34;5049818;28;69333;-42
2023/08/10 06:18:24;;;;;;;3.70;2.73;;;;;;;33.81;60.28;100648.09;5051850;28;65709;-41
2023/08/10 06:20:55;;;;;;;3.72;2.35;;;;;;;34.05;60.33;100680.63;5051710;28;70416;-42
2023/08/10 06:23:25;;;;;;;2.95;2.17;;;;;;;34.08;60.40;100674.69;5048852;28;66633;-40
2023/08/10 06:25:56;;;;;;;2.90;2.40;;;;;;;34.06;60.81;100674.09;5057463;28;70034;-40
2023/08/10 06:28:27;;;;;;;3.10;2.50;;;;;;;34.09;60.34;100671.72;5049704;28;66195;-42
2023/08/10 06:30:58;;;;;;;8.10;3.00;;;;;;;34.15;60.46;100672.63;5049320;28;70310;-40
2023/08/10 06:33:29;;;;;;;4.03;2.75;;;;;;;34.16;60.40;100674.28;5057438;27;66364;-41
2023/08/10 06:35:59;;;;;;;3.30;2.17;;;;;;;34.14;60.18;100660.09;5059675;28;70702;-42
2023/08/10 06:38:30;;;;;;;4.10;2.08;;;;;;;34.03;60.47;100626.41;5054841;28;65353;-40
2023/08/10 06:41:01;;;;;;;8.18;2.30;;;;;;;33.98;60.01;100615.44;5061611;28;69860;-40
2023/08/10 06:43:32;;;;;;;5.07;2.50;;;;;;;34.10;60.08;100632.53;5046501;28;64973;-41
2023/08/10 06:46:03;;;;;;;3.83;2.17;;;;;;;34.20;59.82;100642.75;5045366;28;69912;-40
2023/08/10 06:48:33;;;;;;;3.35;2.55;;;;;;;34.29;59.86;100646.69;5060600;28;66321;-40
2023/08/10 06:51:04;;;;;;;3.63;2.37;;;;;;;34.32;59.54;100645.38;5059454;28;70155;-40
2023/08/10 06:53:35;;;;;;;4.32;2.60;;;;;;;34.37;59.40;100638.09;5052080;28;66677;-40
2023/08/10 06:56:06;;;;;;;6.95;2.97;;;;;;;34.39;59.93;100635.16;5051449;28;70130;-42
2023/08/10 06:58:37;;;;;;;3.85;2.50;;;;;;;34.43;59.82;100630.84;5051868;28;66498;-39
2023/08/10 07:01:11;;;;;;;5.60;2.67;;;;;;;34.47;59.47;100626.56;5056437;28;69283;-43
2023/08/10 07:03:42;;;;;;;7.13;2.57;;;;;;;34.51;59.78;100627.69;5053080;28;66185;-41
2023/08/10 07:06:17;;;;;;;6.38;3.28;;;;;;;34.40;59.54;100604.09;5058520;28;70131;-41
2023/08/10 07:08:52;;;;;;;3.13;2.70;;;;;;;34.45;59.52;100606.91;5060375;28;66527;-41
2023/08/10 07:11:23;;;;;;;4.90;2.40;;;;;;;34.61;58.97;100624.31;5059025;28;70196;-41
2023/08/10 07:13:54;;;;;;;2.30;2.10;;;;;;;34.23;58.91;100561.41;5059126;28;66814;-41
2023/08/10 07:16:25;;;;;;;3.10;2.45;;;;;;;34.65;58.92;100622.72;5058321;28;70388;-42
2023/08/10 07:18:55;;;;;;;5.15;2.60;;;;;;;34.58;58.88;100608.47;5049006;28;66377;-42
2023/08/10 07:21:26;;;;;;;2.83;2.50;;;;;;;34.70;59.36;100620.91;5054624;28;69606;-42
2023/08/10 07:23:58;;;;;;;4.00;2.77;;;;;;;34.67;58.82;100606.97;5054913;28;65733;-41
2023/08/10 07:26:29;;;;;;;4.30;3.08;;;;;;;34.66;59.21;100584.34;5053620;28;70231;-41
2023/08/10 07:29:00;;;;;;;5.80;3.33;;;;;;;34.84;59.14;100607.72;5057887;28;66758;-41
2023/08/10 07:31:34;;;;;;;2.72;2.28;;;;;;;34.88;58.40;100608.88;5058585;28;70164;-42
2023/08/10 07:34:05;;;;;;;3.33;2.90;;;;;;;34.92;58.34;100603.72;5054404;28;65886;-41
2023/08/10 07:36:36;;;;;;;3.08;2.65;;;;;;;34.94;58.62;100604.31;5053117;28;71034;-42
2023/08/10 07:39:07;;;;;;;3.08;2.72;;;;;;;34.98;58.48;100594.53;5044009;28;66611;-42
2023/08/10 07:41:37;;;;;;;;;;;;;;;34.75;58.46;100600.25;5048867;28;70432;-42
2023/08/10 07:44:08;;;;;;;3.45;2.85;;;;;;;34.96;58.64;100579.50;5052058;28;65873;-42
2023/08/10 07:46:39;;;;;;;4.10;2.72;;;;;;;35.03;58.44;100575.50;5055671;28;70129;-40
2023/08/10 07:49:09;;;;;;;4.10;2.88;;;;;;;35.09;58.52;100574.50;5054932;28;66171;-42
2023/08/10 07:51:43;;;;;;;4.43;2.83;;;;;;;35.12;58.18;100570.44;5053500;28;70409;-41
2023/08/10 07:54:17;;;;;;;3.47;3.05;;;;;;;35.02;57.65;100546.63;5057508;28;66744;-42
2023/08/10 07:56:48;;;;;;;4.20;2.67;;;;;;;35.18;57.73;100558.50;5052668;28;70151;-42
2023/08/10 07:59:19;;;;;;;5.45;2.97;;;;;;;35.20;57.80;100569.16;5055748;28;66625;-42
2023/08/10 08:01:49;;;;;;;3.65;2.95;;;;;;;35.13;57.75;100559.28;5053907;28;69712;-41
2023/08/10 08:04:20;;;;;;;4.03;2.90;;;;;;;35.24;57.93;100570.28;5055543;28;66551;-43
2023/08/10 08:06:52;;;;;;;7.82;2.92;;;;;;;35.27;57.52;100567.88;5047107;28;70729;-42
2023/08/10 08:09:23;;;;;;;5.50;3.00;;;;;;;35.29;57.53;100570.34;5057604;28;67606;-41
2023/08/10 08:11:54;;;;;;;4.22;3.08;;;;;;;35.31;57.22;100570.91;5056778;28;69408;-41
2023/08/10 08:14:25;;;;;;;5.15;3.13;;;;;;;35.32;57.32;100569.81;5054135;28;66478;-42
2023/08/10 08:16:55;;;;;;;3.65;2.88;;;;;;;35.34;57.82;100567.66;5053809;28;69928;-42
2023/08/10 08:19:26;;;;;;;5.65;3.15;;;;;;;35.38;57.79;100570.69;5052238;28;66919;-42
2023/08/10 08:21:57;;;;;;;3.33;3.03;;;;;;;35.38;57.08;100567.97;5058744;28;70223;-42
2023/08/10 08:24:27;;;;;;;4.10;3.15;;;;;;;35.43;57.64;100571.56;5055366;28;67415;-42
2023/08/10 08:26:58;;;;;;;4.70;3.13;;;;;;;35.44;57.52;100566.91;5054558;28;69376;-43
2023/08/10 08:29:30;;;;;;;5.00;2.60;;;;;;;35.44;57.68;100556.00;5057240;28;65299;-41
2023/08/10 08:32:01;;;;;;;3.72;2.95;;;;;;;35.46;57.30;100551.13;5050291;28;70184;-42
2023/08/10 08:34:35;;;;;;;;;;;;;;;35.23;57.32;100546.84;5056783;28;65093;-42
2023/08/10 08:37:06;;;;;;;3.83;3.30;;;;;;;35.45;56.98;100539.41;5051518;28;70267;-43
2023/08/10 08:39:36;;;;;;;4.32;3.40;;;;;;;35.46;57.44;100530.13;5052447;28;65585;-43
2023/08/10 08:42:08;;;;;;;6.53;3.33;;;;;;;34.92;56.98;100441.03;5046392;28;70135;-43
2023/08/10 08:44:39;;;;;;;3.90;3.20;;;;;;;35.37;57.18;100504.41;5049582;28;66395;-43
2023/08/10 08:47:10;;;;;;;3.75;3.45;;;;;;;35.52;56.80;100536.44;5047453;28;70125;-43
2023/08/10 08:49:40;;;;;;;7.22;3.00;;;;;;;35.54;56.79;100543.28;5051611;28;66130;-42
2023/08/10 08:52:11;;;;;;;4.07;3.37;;;;;;;35.55;57.34;100550.41;5052195;28;70082;-42
2023/08/10 08:54:42;;;;;;;3.90;3.10;;;;;;;35.12;56.67;100478.56;5049373;28;65309;-43
2023/08/10 08:57:13;;;;;;;5.60;3.53;;;;;;;35.58;56.75;100552.66;5045894;28;70027;-42
2023/08/10 08:59:44;;;;;;;5.63;3.17;;;;;;;35.57;56.78;100553.69;5046699;28;66276;-44
2023/08/10 09:02:15;;;;;;;3.28;2.97;;;;;;;35.61;56.78;100561.38;5046207;28;70514;-42
2023/08/10 09:04:48;;;;;;;4.70;3.33;;;;;;;35.50;56.41;100542.19;5046021;28;65435;-42
2023/08/10 09:07:19;;;;;;;4.83;3.70;;;;;;;35.62;57.11;100560.31;5068288;28;69901;-42
2023/08/10 09:09:50;;;;;;;3.57;2.90;;;;;;;35.63;56.44;100561.94;5054706;28;66687;-43
2023/08/10 09:12:34;;;;;;;3.65;3.35;;;;;;;35.56;56.71;100559.44;5050177;28;69982;-43
2023/08/10 09:15:13;;;;;;;3.65;3.35;;;;;;;34.81;56.83;100435.75;5054321;28;66288;-42
2023/08/10 09:17:46;;;;;;;4.45;3.70;;;;;;;35.09;56.75;100481.81;5039541;28;69514;-42
2023/08/10 09:20:23;;;;;;;4.57;3.90;;;;;;;35.65;56.44;100581.59;5048667;28;65779;-41
2023/08/10 09:22:57;;;;;;;5.82;4.25;;;;;;;35.65;56.72;100565.22;5057159;28;70017;-42
2023/08/10 09:25:39;;;;;;;4.30;3.92;;;;;;;35.57;56.24;100553.69;5051183;28;66351;-43
2023/08/10 09:28:12;;;;;;;7.75;3.88;;;;;;;35.50;56.28;100544.91;5061038;28;69826;-42
2023/08/10 09:30:43;;;;;;;6.00;4.47;;;;;;;35.63;57.02;100572.84;5056806;28;66243;-43
2023/08/10 09:33:31;;;;;;;4.97;4.47;;;;;;;35.56;56.28;100568.44;5057031;28;69226;-41
2023/08/10 09:36:03;;;;;;;4.88;4.35;;;;;;;35.02;56.22;100466.72;5054225;28;66500;-44
2023/08/10 09:38:35;;;;;;;4.38;4.03;;;;;;;35.66;56.69;100581.34;5054839;28;70811;-43
2023/08/10 09:41:12;;;;;;;4.82;4.28;;;;;;;35.64;56.27;100586.25;5056397;28;65966;-43
2023/08/10 09:43:44;;;;;;;4.22;3.92;;;;;;;35.50;56.41;100564.00;5056047;28;70453;-42
2023/08/10 09:46:16;;;;;;;5.68;3.88;;;;;;;35.12;56.71;100514.00;5057283;28;65995;-43
2023/08/10 09:48:49;;;;;;;8.00;4.97;;;;;;;35.54;56.47;100575.19;5022806;28;68835;-44
2023/08/10 09:51:19;;;;;;;4.57;4.18;;;;;;;35.51;57.09;100576.53;5055939;28;66114;-42
2023/08/10 09:53:51;;;;;;;6.90;4.93;;;;;;;35.63;56.19;100606.41;5056080;28;70197;-42
2023/08/10 09:56:21;;;;;;;6.65;5.28;;;;;;;35.62;56.37;100602.03;5054104;28;67688;-42
2023/08/10 09:58:52;;;;;;;5.75;5.22;;;;;;;35.51;56.56;100582.00;5057894;28;70747;-43
2023/08/10 10:01:24;;;;;;;9.13;5.50;;;;;;;35.52;56.62;100583.66;5056248;28;65968;-45
2023/08/10 10:03:54;;;;;;;;;;;;;;;35.37;57.28;100597.16;5055364;28;70959;-43
2023/08/10 10:06:26;;;;;;;10.45;6.30;;;;;;;35.58;56.97;100593.56;5060409;28;65687;-43
2023/08/10 10:09:01;;;;;;;8.20;6.10;;;;;;;35.09;56.16;100525.44;5061000;28;69464;-42
2023/08/10 10:11:33;;;;;;;10.48;6.18;;;;;;;35.55;56.19;100599.50;5024825;28;65324;-42
2023/08/10 10:14:04;;;;;;;8.32;6.50;;;;;;;35.16;57.68;100614.38;5061536;28;69487;-39
2023/08/10 10:16:35;;;;;;;11.52;8.15;;;;;;;34.82;58.67;100596.25;5058609;28;66130;-39
2023/08/10 10:19:06;;;;;;;14.13;8.57;;;;;;;34.85;56.75;100623.00;5057130;28;68801;-39
2023/08/10 10:21:37;;;;;;;12.32;8.52;;;;;;;34.65;57.75;100609.91;5060416;28;65861;-39
2023/08/10 10:24:12;;;;;;;9.50;8.52;;;;;;;34.70;57.02;100633.69;5059510;28;70990;-40
2023/08/10 10:26:59;;;;;;;16.88;9.50;;;;;;;34.58;56.07;100606.56;5059338;28;66634;-39
2023/08/10 10:29:40;;;;;;;13.57;9.00;;;;;;;34.17;56.85;100542.53;5058057;28;69177;-41
2023/08/10 10:32:13;;;;;;;20.60;9.70;;;;;;;34.52;57.32;100613.00;5059154;28;65946;-41
2023/08/10 10:34:44;;;;;;;12.80;9.40;;;;;;;34.42;57.28;100602.78;5059033;28;70227;-40
2023/08/10 10:37:28;;;;;;;11.93;9.10;;;;;;;34.36;57.81;100592.09;5062794;28;66289;-41
2023/08/10 10:40:23;;;;;;;18.48;8.60;;;;;;;34.37;58.95;100634.56;5060544;28;70257;-42
2023/08/10 10:43:14;;;;;;;8.88;7.68;;;;;;;34.35;60.07;100625.81;5060571;28;66269;-41
2023/08/10 10:45:45;;;;;;;15.57;9.20;;;;;;;34.35;60.30;100633.97;5055932;28;70426;-40
2023/08/10 10:48:16;;;;;;;11.57;9.03;;;;;;;34.33;61.09;100630.72;5060033;28;66554;-38
2023/08/10 10:50:46;;;;;;;16.63;9.27;;;;;;;34.25;61.50;100619.16;5053909;28;68960;-41
2023/08/10 10:53:22;;;;;;;11.20;8.95;;;;;;;34.33;61.21;100638.88;5058240;28;67699;-41
2023/08/10 10:55:54;;;;;;;13.27;10.02;;;;;;;34.31;61.82;100643.75;5052492;28;70842;-41
2023/08/10 10:58:29;;;;;;;14.30;9.45;;;;;;;33.83;61.80;100556.16;5057684;28;66657;-41
2023/08/10 11:01:00;;;;;;;14.30;9.95;;;;;;;34.31;61.95;100649.19;5057299;28;69614;-41
2023/08/10 11:03:30;;;;;;;10.93;9.80;;;;;;;34.23;62.11;100643.06;5057655;28;67819;-42
2023/08/10 11:06:02;;;;;;;17.27;10.30;;;;;;;34.18;62.22;100634.81;5055630;28;70377;-41
2023/08/10 11:08:34;;;;;;;14.60;9.98;;;;;;;34.25;63.07;100657.28;5055159;28;66833;-41
2023/08/10 11:11:05;;;;;;;14.10;10.27;;;;;;;34.20;62.78;100642.75;5055129;28;70581;-41
2023/08/10 11:13:37;;;;;;;13.37;11.40;;;;;;;34.28;63.03;100642.34;5054072;28;66662;-42
2023/08/10 11:16:09;;;;;;;15.60;10.18;;;;;;;34.26;63.39;100631.69;5056101;28;69756;-40
2023/08/10 11:18:43;;;;;;;15.50;10.88;;;;;;;34.18;63.74;100618.50;5052815;28;66294;-40
2023/08/10 11:21:15;;;;;;;11.38;9.50;;;;;;;33.84;63.63;100557.81;5054981;28;69807;-41
2023/08/10 11:23:46;;;;;;;14.15;10.65;;;;;;;34.52;61.66;100621.19;5057914;28;65557;-40
2023/08/10 11:26:19;;;;;;;11.55;10.45;;;;;;;34.59;61.40;100630.00;5056170;28;69544;-40
2023/08/10 11:28:51;;;;;;;12.45;9.85;;;;;;;34.65;61.56;100622.72;5054648;28;65783;-43
2023/08/10 11:31:22;;;;;;;17.23;9.85;;;;;;;34.67;61.67;100615.94;5051284;28;69252;-42
2023/08/10 11:33:53;;;;;;;11.40;9.88;;;;;;;33.91;61.16;100487.72;5054756;28;66295;-41
2023/08/10 11:36:24;;;;;;;9.93;9.03;;;;;;;34.71;61.28;100613.53;5055898;28;69088;-40
2023/08/10 11:38:55;;;;;;;14.30;9.05;;;;;;;34.76;61.22;100618.25;5054630;28;65631;-39
2023/08/10 11:41:25;;;;;;;9.87;8.80;;;;;;;34.75;61.39;100627.50;5058554;28;71495;-40
2023/08/10 11:43:56;;;;;;;12.50;9.48;;;;;;;34.44;60.72;100575.31;5061517;28;66553;-40
2023/08/10 11:46:29;;;;;;;10.23;8.90;;;;;;;34.37;61.32;100555.59;5058158;28;69784;-41